sensor_id;sensor_type;location;lat;lon;timestamp;temperature;humidity
26707;DHT22;14319;49.422;10.934;2024-01-11T00:01:09;-4.00;73.90
26707;DHT22;14319;49.422;10.934;2024-01-11T00:03:10;-4.00;75.00
26707;DHT22;14319;49.422;10.934;2024-01-11T00:05:11;-3.70;74.90
26707;DHT22;14319;49.422;10.934;2024-01-11T00:07:11;-3.50;73.70
26707;DHT22;14319;49.422;10.934;2024-01-11T00:09:12;-3.50;72.80
26707;DHT22;14319;49.422;10.934;2024-01-11T00:11:13;-3.70;72.70
26707;DHT22;14319;49.422;10.934;2024-01-11T00:13:13;-3.60;73.40
26707;DHT22;14319;49.422;10.934;2024-01-11T00:15:14;-3.60;72.90
26707;DHT22;14319;49.422;10.934;2024-01-11T00:17:15;-3.40;72.50
26707;DHT22;14319;49.422;10.934;2024-01-11T00:19:16;-3.70;72.40
26707;DHT22;14319;49.422;10.934;2024-01-11T00:21:16;-3.90;73.10
26707;DHT22;14319;49.422;10.934;2024-01-11T00:23:17;-3.90;74.00
26707;DHT22;14319;49.422;10.934;2024-01-11T00:25:18;-3.90;73.50
26707;DHT22;14319;49.422;10.934;2024-01-11T00:27:18;-3.50;73.30
26707;DHT22;14319;49.422;10.934;2024-01-11T00:29:19;-3.30;71.90
26707;DHT22;14319;49.422;10.934;2024-01-11T00:31:19;-3.20;71.40
26707;DHT22;14319;49.422;10.934;2024-01-11T00:33:20;-3.20;71.30
26707;DHT22;14319;49.422;10.934;2024-01-11T00:35:20;-3.20;70.90
26707;DHT22;14319;49.422;10.934;2024-01-11T00:37:21;-3.30;71.70
26707;DHT22;14319;49.422;10.934;2024-01-11T00:39:22;-3.40;71.50
26707;DHT22;14319;49.422;10.934;2024-01-11T00:41:22;-3.50;71.40
26707;DHT22;14319;49.422;10.934;2024-01-11T00:43:23;-3.50;71.70
26707;DHT22;14319;49.422;10.934;2024-01-11T00:45:23;-3.50;72.10
26707;DHT22;14319;49.422;10.934;2024-01-11T00:47:24;-3.70;71.40
26707;DHT22;14319;49.422;10.934;2024-01-11T00:49:24;-3.80;72.10
26707;DHT22;14319;49.422;10.934;2024-01-11T00:51:25;-4.20;72.90
26707;DHT22;14319;49.422;10.934;2024-01-11T00:53:26;-4.30;73.80
26707;DHT22;14319;49.422;10.934;2024-01-11T00:55:30;-4.20;74.50
26707;DHT22;14319;49.422;10.934;2024-01-11T00:57:31;-4.20;74.00
26707;DHT22;14319;49.422;10.934;2024-01-11T00:59:32;-4.00;73.70
26707;DHT22;14319;49.422;10.934;2024-01-11T01:01:32;-4.10;73.80
26707;DHT22;14319;49.422;10.934;2024-01-11T01:03:33;-3.80;73.50
26707;DHT22;14319;49.422;10.934;2024-01-11T01:05:33;-4.00;73.20
26707;DHT22;14319;49.422;10.934;2024-01-11T01:07:34;-3.80;73.90
26707;DHT22;14319;49.422;10.934;2024-01-11T01:09:34;-3.80;73.30
26707;DHT22;14319;49.422;10.934;2024-01-11T01:11:35;-4.00;73.20
26707;DHT22;14319;49.422;10.934;2024-01-11T01:13:35;-4.10;73.70
26707;DHT22;14319;49.422;10.934;2024-01-11T01:15:36;-4.00;73.50
26707;DHT22;14319;49.422;10.934;2024-01-11T01:17:37;-4.00;73.80
26707;DHT22;14319;49.422;10.934;2024-01-11T01:19:37;-4.20;73.20
26707;DHT22;14319;49.422;10.934;2024-01-11T01:21:38;-4.20;73.60
26707;DHT22;14319;49.422;10.934;2024-01-11T01:23:38;-4.30;73.60
26707;DHT22;14319;49.422;10.934;2024-01-11T01:25:39;-4.40;74.00
26707;DHT22;14319;49.422;10.934;2024-01-11T01:27:40;-4.40;74.10
26707;DHT22;14319;49.422;10.934;2024-01-11T01:29:40;-4.40;74.40
26707;DHT22;14319;49.422;10.934;2024-01-11T01:31:41;-4.50;74.70
26707;DHT22;14319;49.422;10.934;2024-01-11T01:33:41;-4.30;74.50
26707;DHT22;14319;49.422;10.934;2024-01-11T01:35:42;-4.10;74.20
26707;DHT22;14319;49.422;10.934;2024-01-11T01:37:43;-4.00;73.40
26707;DHT22;14319;49.422;10.934;2024-01-11T01:39:43;-3.90;72.60
26707;DHT22;14319;49.422;10.934;2024-01-11T01:41:44;-4.20;72.20
26707;DHT22;14319;49.422;10.934;2024-01-11T01:43:44;-4.30;73.20
26707;DHT22;14319;49.422;10.934;2024-01-11T01:45:45;-4.40;73.70
26707;DHT22;14319;49.422;10.934;2024-01-11T01:47:46;-4.20;74.10
26707;DHT22;14319;49.422;10.934;2024-01-11T01:49:47;-4.20;73.10
26707;DHT22;14319;49.422;10.934;2024-01-11T01:51:49;-4.20;73.00
26707;DHT22;14319;49.422;10.934;2024-01-11T01:53:52;-4.20;73.30
26707;DHT22;14319;49.422;10.934;2024-01-11T01:55:54;-4.20;73.30
26707;DHT22;14319;49.422;10.934;2024-01-11T01:57:57;-3.90;73.70
26707;DHT22;14319;49.422;10.934;2024-01-11T01:59:58;-3.80;72.70
26707;DHT22;14319;49.422;10.934;2024-01-11T02:01:59;-3.90;72.30
26707;DHT22;14319;49.422;10.934;2024-01-11T02:04:00;-4.30;72.20
26707;DHT22;14319;49.422;10.934;2024-01-11T02:06:02;-4.70;73.60
26707;DHT22;14319;49.422;10.934;2024-01-11T02:08:06;-4.80;75.60
26707;DHT22;14319;49.422;10.934;2024-01-11T02:10:08;-4.60;74.80
26707;DHT22;14319;49.422;10.934;2024-01-11T02:12:10;-4.40;74.00
26707;DHT22;14319;49.422;10.934;2024-01-11T02:14:13;-4.30;74.10
26707;DHT22;14319;49.422;10.934;2024-01-11T02:16:13;-4.40;73.00
26707;DHT22;14319;49.422;10.934;2024-01-11T02:18:14;-4.40;73.90
26707;DHT22;14319;49.422;10.934;2024-01-11T02:20:15;-4.40;73.30
26707;DHT22;14319;49.422;10.934;2024-01-11T02:22:21;-4.30;73.00
26707;DHT22;14319;49.422;10.934;2024-01-11T02:24:23;-4.40;73.50
26707;DHT22;14319;49.422;10.934;2024-01-11T02:26:23;-4.40;73.10
26707;DHT22;14319;49.422;10.934;2024-01-11T02:28:24;-4.20;73.10
26707;DHT22;14319;49.422;10.934;2024-01-11T02:30:24;-4.00;73.60
26707;DHT22;14319;49.422;10.934;2024-01-11T02:32:25;-4.00;72.00
26707;DHT22;14319;49.422;10.934;2024-01-11T02:34:27;-4.10;72.40
26707;DHT22;14319;49.422;10.934;2024-01-11T02:36:27;-4.10;72.20
26707;DHT22;14319;49.422;10.934;2024-01-11T02:38:28;-4.60;72.70
26707;DHT22;14319;49.422;10.934;2024-01-11T02:40:30;-4.70;74.50
26707;DHT22;14319;49.422;10.934;2024-01-11T02:42:30;-4.70;74.10
26707;DHT22;14319;49.422;10.934;2024-01-11T02:44:31;-4.50;74.50
26707;DHT22;14319;49.422;10.934;2024-01-11T02:46:32;-4.70;73.60
26707;DHT22;14319;49.422;10.934;2024-01-11T02:48:32;-5.10;75.40
26707;DHT22;14319;49.422;10.934;2024-01-11T02:50:33;-5.10;76.10
26707;DHT22;14319;49.422;10.934;2024-01-11T02:52:34;-4.90;76.00
26707;DHT22;14319;49.422;10.934;2024-01-11T02:54:35;-4.80;75.20
26707;DHT22;14319;49.422;10.934;2024-01-11T02:56:35;-4.70;74.00
26707;DHT22;14319;49.422;10.934;2024-01-11T02:58:36;-4.60;74.00
26707;DHT22;14319;49.422;10.934;2024-01-11T03:00:37;-4.60;73.50
26707;DHT22;14319;49.422;10.934;2024-01-11T03:02:37;-4.40;73.40
26707;DHT22;14319;49.422;10.934;2024-01-11T03:04:41;-4.20;72.20
26707;DHT22;14319;49.422;10.934;2024-01-11T03:06:42;-4.20;71.60
26707;DHT22;14319;49.422;10.934;2024-01-11T03:08:42;-4.30;71.80
26707;DHT22;14319;49.422;10.934;2024-01-11T03:10:43;-4.10;72.30
26707;DHT22;14319;49.422;10.934;2024-01-11T03:12:43;-4.20;71.70
26707;DHT22;14319;49.422;10.934;2024-01-11T03:14:44;-4.30;72.80
26707;DHT22;14319;49.422;10.934;2024-01-11T03:16:45;-4.20;72.50
26707;DHT22;14319;49.422;10.934;2024-01-11T03:18:45;-4.10;72.20
26707;DHT22;14319;49.422;10.934;2024-01-11T03:20:46;-4.20;71.70
26707;DHT22;14319;49.422;10.934;2024-01-11T03:22:47;-4.00;71.70
26707;DHT22;14319;49.422;10.934;2024-01-11T03:24:47;-3.90;71.30
26707;DHT22;14319;49.422;10.934;2024-01-11T03:26:48;-3.90;71.20
26707;DHT22;14319;49.422;10.934;2024-01-11T03:28:49;-3.80;70.80
26707;DHT22;14319;49.422;10.934;2024-01-11T03:30:49;-3.80;69.80
26707;DHT22;14319;49.422;10.934;2024-01-11T03:32:50;-3.90;69.50
26707;DHT22;14319;49.422;10.934;2024-01-11T03:34:50;-4.00;70.30
26707;DHT22;14319;49.422;10.934;2024-01-11T03:36:51;-3.90;71.00
26707;DHT22;14319;49.422;10.934;2024-01-11T03:38:51;-3.90;70.50
26707;DHT22;14319;49.422;10.934;2024-01-11T03:40:52;-4.20;71.00
26707;DHT22;14319;49.422;10.934;2024-01-11T03:42:53;-4.20;71.20
26707;DHT22;14319;49.422;10.934;2024-01-11T03:44:53;-4.10;71.40
26707;DHT22;14319;49.422;10.934;2024-01-11T03:46:54;-4.00;70.80
26707;DHT22;14319;49.422;10.934;2024-01-11T03:48:54;-3.90;70.70
26707;DHT22;14319;49.422;10.934;2024-01-11T03:50:57;-4.00;69.80
26707;DHT22;14319;49.422;10.934;2024-01-11T03:52:57;-4.20;70.90
26707;DHT22;14319;49.422;10.934;2024-01-11T03:54:58;-4.20;71.40
26707;DHT22;14319;49.422;10.934;2024-01-11T03:56:58;-4.10;71.30
26707;DHT22;14319;49.422;10.934;2024-01-11T03:58:59;-4.10;71.40
26707;DHT22;14319;49.422;10.934;2024-01-11T04:01:00;-4.10;71.10
26707;DHT22;14319;49.422;10.934;2024-01-11T04:03:00;-4.20;71.60
26707;DHT22;14319;49.422;10.934;2024-01-11T04:05:02;-4.10;71.60
26707;DHT22;14319;49.422;10.934;2024-01-11T04:07:03;-3.90;71.00
26707;DHT22;14319;49.422;10.934;2024-01-11T04:09:04;-3.90;70.50
26707;DHT22;14319;49.422;10.934;2024-01-11T04:11:04;-4.40;70.80
26707;DHT22;14319;49.422;10.934;2024-01-11T04:13:06;-4.40;71.50
26707;DHT22;14319;49.422;10.934;2024-01-11T04:15:07;-4.40;71.60
26707;DHT22;14319;49.422;10.934;2024-01-11T04:17:08;-4.30;71.60
26707;DHT22;14319;49.422;10.934;2024-01-11T04:19:09;-4.20;70.70
26707;DHT22;14319;49.422;10.934;2024-01-11T04:21:27;-4.40;69.90
26707;DHT22;14319;49.422;10.934;2024-01-11T04:23:29;-4.90;71.70
26707;DHT22;14319;49.422;10.934;2024-01-11T04:25:30;-5.10;73.00
26707;DHT22;14319;49.422;10.934;2024-01-11T04:27:30;-5.30;73.20
26707;DHT22;14319;49.422;10.934;2024-01-11T04:29:31;-5.40;74.10
26707;DHT22;14319;49.422;10.934;2024-01-11T04:31:31;-5.10;73.80
26707;DHT22;14319;49.422;10.934;2024-01-11T04:33:32;-5.30;73.10
26707;DHT22;14319;49.422;10.934;2024-01-11T04:35:32;-5.10;74.30
26707;DHT22;14319;49.422;10.934;2024-01-11T04:37:33;-5.20;73.80
26707;DHT22;14319;49.422;10.934;2024-01-11T04:39:35;-5.00;75.10
26707;DHT22;14319;49.422;10.934;2024-01-11T04:41:36;-4.80;74.30
26707;DHT22;14319;49.422;10.934;2024-01-11T04:43:41;-4.60;73.90
26707;DHT22;14319;49.422;10.934;2024-01-11T04:45:42;-4.50;73.10
26707;DHT22;14319;49.422;10.934;2024-01-11T04:47:42;-4.30;72.90
26707;DHT22;14319;49.422;10.934;2024-01-11T04:49:43;-4.30;72.30
26707;DHT22;14319;49.422;10.934;2024-01-11T04:51:43;-4.30;71.50
26707;DHT22;14319;49.422;10.934;2024-01-11T04:53:45;-4.30;71.80
26707;DHT22;14319;49.422;10.934;2024-01-11T04:55:45;-4.20;70.90
26707;DHT22;14319;49.422;10.934;2024-01-11T04:57:46;-4.30;71.30
26707;DHT22;14319;49.422;10.934;2024-01-11T04:59:46;-4.30;70.50
26707;DHT22;14319;49.422;10.934;2024-01-11T05:01:47;-4.60;70.90
26707;DHT22;14319;49.422;10.934;2024-01-11T05:03:48;-4.50;71.70
26707;DHT22;14319;49.422;10.934;2024-01-11T05:05:49;-4.50;71.20
26707;DHT22;14319;49.422;10.934;2024-01-11T05:07:49;-4.50;70.90
26707;DHT22;14319;49.422;10.934;2024-01-11T05:09:50;-4.50;71.30
26707;DHT22;14319;49.422;10.934;2024-01-11T05:11:50;-4.30;70.80
26707;DHT22;14319;49.422;10.934;2024-01-11T05:13:51;-4.50;71.70
26707;DHT22;14319;49.422;10.934;2024-01-11T05:15:52;-4.40;71.40
26707;DHT22;14319;49.422;10.934;2024-01-11T05:17:55;-4.60;72.00
26707;DHT22;14319;49.422;10.934;2024-01-11T05:19:56;-4.50;72.50
26707;DHT22;14319;49.422;10.934;2024-01-11T05:21:57;-4.50;72.40
26707;DHT22;14319;49.422;10.934;2024-01-11T05:23:58;-4.40;71.30
26707;DHT22;14319;49.422;10.934;2024-01-11T05:25:58;-4.60;71.40
26707;DHT22;14319;49.422;10.934;2024-01-11T05:28:00;-4.60;71.50
26707;DHT22;14319;49.422;10.934;2024-01-11T05:30:01;-4.50;71.90
26707;DHT22;14319;49.422;10.934;2024-01-11T05:32:01;-4.60;71.30
26707;DHT22;14319;49.422;10.934;2024-01-11T05:34:02;-4.80;71.90
26707;DHT22;14319;49.422;10.934;2024-01-11T05:36:03;-4.60;71.60
26707;DHT22;14319;49.422;10.934;2024-01-11T05:38:03;-4.60;70.80
26707;DHT22;14319;49.422;10.934;2024-01-11T05:40:05;-4.50;71.20
26707;DHT22;14319;49.422;10.934;2024-01-11T05:42:05;-4.60;70.90
26707;DHT22;14319;49.422;10.934;2024-01-11T05:44:06;-4.60;71.10
26707;DHT22;14319;49.422;10.934;2024-01-11T05:46:07;-4.50;70.40
26707;DHT22;14319;49.422;10.934;2024-01-11T05:48:09;-4.80;70.20
26707;DHT22;14319;49.422;10.934;2024-01-11T05:50:11;-4.90;71.30
26707;DHT22;14319;49.422;10.934;2024-01-11T05:52:12;-4.80;71.50
26707;DHT22;14319;49.422;10.934;2024-01-11T05:54:13;-4.70;71.40
26707;DHT22;14319;49.422;10.934;2024-01-11T05:56:14;-4.50;71.10
26707;DHT22;14319;49.422;10.934;2024-01-11T05:58:14;-4.60;70.30
26707;DHT22;14319;49.422;10.934;2024-01-11T06:00:15;-5.20;71.00
26707;DHT22;14319;49.422;10.934;2024-01-11T06:02:16;-5.50;72.80
26707;DHT22;14319;49.422;10.934;2024-01-11T06:04:16;-5.60;74.20
26707;DHT22;14319;49.422;10.934;2024-01-11T06:06:17;-5.50;73.80
26707;DHT22;14319;49.422;10.934;2024-01-11T06:08:17;-5.40;74.50
26707;DHT22;14319;49.422;10.934;2024-01-11T06:10:18;-5.20;73.60
26707;DHT22;14319;49.422;10.934;2024-01-11T06:12:18;-5.20;72.60
26707;DHT22;14319;49.422;10.934;2024-01-11T06:14:19;-5.10;72.90
26707;DHT22;14319;49.422;10.934;2024-01-11T06:16:20;-5.00;73.10
26707;DHT22;14319;49.422;10.934;2024-01-11T06:18:20;-5.00;72.60
26707;DHT22;14319;49.422;10.934;2024-01-11T06:20:21;-5.60;72.80
26707;DHT22;14319;49.422;10.934;2024-01-11T06:22:22;-6.00;75.00
26707;DHT22;14319;49.422;10.934;2024-01-11T06:24:22;-5.60;74.70
26707;DHT22;14319;49.422;10.934;2024-01-11T06:26:23;-5.40;73.40
26707;DHT22;14319;49.422;10.934;2024-01-11T06:28:23;-5.20;72.50
26707;DHT22;14319;49.422;10.934;2024-01-11T06:30:24;-5.10;71.90
26707;DHT22;14319;49.422;10.934;2024-01-11T06:32:24;-5.10;71.00
26707;DHT22;14319;49.422;10.934;2024-01-11T06:34:25;-5.10;72.10
26707;DHT22;14319;49.422;10.934;2024-01-11T06:36:26;-5.40;72.20
26707;DHT22;14319;49.422;10.934;2024-01-11T06:38:26;-5.20;73.00
26707;DHT22;14319;49.422;10.934;2024-01-11T06:40:27;-5.10;72.70
26707;DHT22;14319;49.422;10.934;2024-01-11T06:42:27;-4.90;72.10
26707;DHT22;14319;49.422;10.934;2024-01-11T06:44:28;-5.60;71.70
26707;DHT22;14319;49.422;10.934;2024-01-11T06:46:28;-6.20;73.80
26707;DHT22;14319;49.422;10.934;2024-01-11T06:48:29;-6.00;74.80
26707;DHT22;14319;49.422;10.934;2024-01-11T06:50:29;-5.70;74.70
26707;DHT22;14319;49.422;10.934;2024-01-11T06:52:30;-5.80;71.70
26707;DHT22;14319;49.422;10.934;2024-01-11T06:54:30;-5.90;72.10
26707;DHT22;14319;49.422;10.934;2024-01-11T06:56:32;-5.80;71.40
26707;DHT22;14319;49.422;10.934;2024-01-11T06:58:33;-5.90;71.30
26707;DHT22;14319;49.422;10.934;2024-01-11T07:00:34;-5.50;73.10
26707;DHT22;14319;49.422;10.934;2024-01-11T07:02:34;-5.70;72.90
26707;DHT22;14319;49.422;10.934;2024-01-11T07:04:35;-5.70;74.00
26707;DHT22;14319;49.422;10.934;2024-01-11T07:06:35;-5.80;75.10
26707;DHT22;14319;49.422;10.934;2024-01-11T07:08:36;-6.00;76.50
26707;DHT22;14319;49.422;10.934;2024-01-11T07:10:37;-6.00;76.50
26707;DHT22;14319;49.422;10.934;2024-01-11T07:12:38;-6.00;75.40
26707;DHT22;14319;49.422;10.934;2024-01-11T07:14:42;-6.10;76.20
26707;DHT22;14319;49.422;10.934;2024-01-11T07:16:43;-6.00;77.20
26707;DHT22;14319;49.422;10.934;2024-01-11T07:18:43;-5.80;76.30
26707;DHT22;14319;49.422;10.934;2024-01-11T07:20:44;-5.50;76.20
26707;DHT22;14319;49.422;10.934;2024-01-11T07:22:45;-5.30;76.00
26707;DHT22;14319;49.422;10.934;2024-01-11T07:24:45;-5.10;75.20
26707;DHT22;14319;49.422;10.934;2024-01-11T07:26:46;-4.90;74.30
26707;DHT22;14319;49.422;10.934;2024-01-11T07:28:46;-4.90;73.70
26707;DHT22;14319;49.422;10.934;2024-01-11T07:30:48;-4.90;73.70
26707;DHT22;14319;49.422;10.934;2024-01-11T07:32:49;-5.00;73.80
26707;DHT22;14319;49.422;10.934;2024-01-11T07:34:49;-4.70;73.70
26707;DHT22;14319;49.422;10.934;2024-01-11T07:36:51;-4.70;73.10
26707;DHT22;14319;49.422;10.934;2024-01-11T07:38:53;-4.70;72.60
26707;DHT22;14319;49.422;10.934;2024-01-11T07:40:53;-4.70;72.80
26707;DHT22;14319;49.422;10.934;2024-01-11T07:42:54;-4.70;72.50
26707;DHT22;14319;49.422;10.934;2024-01-11T07:44:55;-4.70;71.50
26707;DHT22;14319;49.422;10.934;2024-01-11T07:46:55;-4.60;71.40
26707;DHT22;14319;49.422;10.934;2024-01-11T07:48:56;-4.70;70.80
26707;DHT22;14319;49.422;10.934;2024-01-11T07:50:58;-4.80;71.40
26707;DHT22;14319;49.422;10.934;2024-01-11T07:52:59;-4.90;71.40
26707;DHT22;14319;49.422;10.934;2024-01-11T07:55:00;-5.00;72.60
26707;DHT22;14319;49.422;10.934;2024-01-11T07:57:07;-4.80;72.50
26707;DHT22;14319;49.422;10.934;2024-01-11T07:59:08;-4.80;70.80
26707;DHT22;14319;49.422;10.934;2024-01-11T08:01:13;-5.00;71.90
26707;DHT22;14319;49.422;10.934;2024-01-11T08:03:13;-5.00;71.90
26707;DHT22;14319;49.422;10.934;2024-01-11T08:05:14;-5.00;72.50
26707;DHT22;14319;49.422;10.934;2024-01-11T08:07:15;-4.80;71.80
26707;DHT22;14319;49.422;10.934;2024-01-11T08:09:15;-5.00;72.60
26707;DHT22;14319;49.422;10.934;2024-01-11T08:11:16;-4.80;72.90
26707;DHT22;14319;49.422;10.934;2024-01-11T08:13:16;-4.70;72.00
26707;DHT22;14319;49.422;10.934;2024-01-11T08:15:18;-5.40;71.80
26707;DHT22;14319;49.422;10.934;2024-01-11T08:17:19;-5.30;73.60
26707;DHT22;14319;49.422;10.934;2024-01-11T08:19:19;-5.40;73.10
26707;DHT22;14319;49.422;10.934;2024-01-11T08:21:20;-5.30;74.10
26707;DHT22;14319;49.422;10.934;2024-01-11T08:23:20;-5.10;74.30
26707;DHT22;14319;49.422;10.934;2024-01-11T08:25:21;-5.20;75.20
26707;DHT22;14319;49.422;10.934;2024-01-11T08:27:22;-4.90;75.70
26707;DHT22;14319;49.422;10.934;2024-01-11T08:29:22;-4.90;74.70
26707;DHT22;14319;49.422;10.934;2024-01-11T08:31:23;-4.90;74.70
26707;DHT22;14319;49.422;10.934;2024-01-11T08:33:24;-5.00;75.40
26707;DHT22;14319;49.422;10.934;2024-01-11T08:35:24;-4.80;75.70
26707;DHT22;14319;49.422;10.934;2024-01-11T08:37:25;-4.90;76.10
26707;DHT22;14319;49.422;10.934;2024-01-11T08:39:25;-4.70;76.40
26707;DHT22;14319;49.422;10.934;2024-01-11T08:41:26;-4.60;75.30
26707;DHT22;14319;49.422;10.934;2024-01-11T08:43:27;-4.50;75.50
26707;DHT22;14319;49.422;10.934;2024-01-11T08:45:27;-4.40;75.60
26707;DHT22;14319;49.422;10.934;2024-01-11T08:47:30;-4.30;75.50
26707;DHT22;14319;49.422;10.934;2024-01-11T08:49:30;-4.20;75.10
26707;DHT22;14319;49.422;10.934;2024-01-11T08:51:31;-4.10;74.80
26707;DHT22;14319;49.422;10.934;2024-01-11T08:53:35;-4.00;74.30
26707;DHT22;14319;49.422;10.934;2024-01-11T08:55:35;-3.90;74.50
26707;DHT22;14319;49.422;10.934;2024-01-11T08:57:36;-3.80;74.00
26707;DHT22;14319;49.422;10.934;2024-01-11T08:59:37;-3.80;74.20
26707;DHT22;14319;49.422;10.934;2024-01-11T09:01:38;-3.80;74.20
26707;DHT22;14319;49.422;10.934;2024-01-11T09:03:39;-3.70;74.60
26707;DHT22;14319;49.422;10.934;2024-01-11T09:05:40;-3.70;74.20
26707;DHT22;14319;49.422;10.934;2024-01-11T09:07:40;-3.60;74.00
26707;DHT22;14319;49.422;10.934;2024-01-11T09:09:41;-3.60;74.60
26707;DHT22;14319;49.422;10.934;2024-01-11T09:11:42;-3.50;74.20
26707;DHT22;14319;49.422;10.934;2024-01-11T09:13:42;-3.40;73.70
26707;DHT22;14319;49.422;10.934;2024-01-11T09:15:43;-3.40;73.60
26707;DHT22;14319;49.422;10.934;2024-01-11T09:17:44;-3.50;73.60
26707;DHT22;14319;49.422;10.934;2024-01-11T09:19:44;-3.40;73.60
26707;DHT22;14319;49.422;10.934;2024-01-11T09:21:45;-3.40;73.60
26707;DHT22;14319;49.422;10.934;2024-01-11T09:23:45;-3.50;74.30
26707;DHT22;14319;49.422;10.934;2024-01-11T09:25:46;-3.40;74.10
26707;DHT22;14319;49.422;10.934;2024-01-11T09:27:46;-3.50;74.50
26707;DHT22;14319;49.422;10.934;2024-01-11T09:29:47;-3.60;74.80
26707;DHT22;14319;49.422;10.934;2024-01-11T09:31:48;-3.70;75.50
26707;DHT22;14319;49.422;10.934;2024-01-11T09:33:48;-4.00;75.90
26707;DHT22;14319;49.422;10.934;2024-01-11T09:35:50;-4.10;77.20
26707;DHT22;14319;49.422;10.934;2024-01-11T09:37:51;-4.20;77.50
26707;DHT22;14319;49.422;10.934;2024-01-11T09:39:52;-4.10;77.60
26707;DHT22;14319;49.422;10.934;2024-01-11T09:42:08;-3.80;76.40
26707;DHT22;14319;49.422;10.934;2024-01-11T09:44:12;-3.70;76.00
26707;DHT22;14319;49.422;10.934;2024-01-11T09:46:13;-3.60;74.00
26707;DHT22;14319;49.422;10.934;2024-01-11T09:48:14;-3.80;74.00
26707;DHT22;14319;49.422;10.934;2024-01-11T09:50:16;-4.00;76.50
26707;DHT22;14319;49.422;10.934;2024-01-11T09:52:19;-3.80;76.90
26707;DHT22;14319;49.422;10.934;2024-01-11T09:54:20;-3.60;76.80
26707;DHT22;14319;49.422;10.934;2024-01-11T09:56:21;-3.50;76.50
26707;DHT22;14319;49.422;10.934;2024-01-11T09:58:23;-3.30;76.40
26707;DHT22;14319;49.422;10.934;2024-01-11T10:00:25;-3.20;76.30
26707;DHT22;14319;49.422;10.934;2024-01-11T10:02:26;-3.10;76.00
26707;DHT22;14319;49.422;10.934;2024-01-11T10:04:27;-3.00;76.10
26707;DHT22;14319;49.422;10.934;2024-01-11T10:06:27;-2.90;76.00
26707;DHT22;14319;49.422;10.934;2024-01-11T10:08:31;-2.80;75.80
26707;DHT22;14319;49.422;10.934;2024-01-11T10:10:32;-2.70;75.60
26707;DHT22;14319;49.422;10.934;2024-01-11T10:12:36;-2.60;75.30
26707;DHT22;14319;49.422;10.934;2024-01-11T10:14:36;-2.60;73.50
26707;DHT22;14319;49.422;10.934;2024-01-11T10:16:37;-2.80;74.20
26707;DHT22;14319;49.422;10.934;2024-01-11T10:18:38;-3.00;75.30
26707;DHT22;14319;49.422;10.934;2024-01-11T10:20:38;-2.90;75.40
26707;DHT22;14319;49.422;10.934;2024-01-11T10:22:46;-3.00;75.60
26707;DHT22;14319;49.422;10.934;2024-01-11T10:24:46;-2.90;76.80
26707;DHT22;14319;49.422;10.934;2024-01-11T10:26:47;-2.60;75.20
26707;DHT22;14319;49.422;10.934;2024-01-11T10:28:48;-2.70;75.60
26707;DHT22;14319;49.422;10.934;2024-01-11T10:30:50;-2.80;77.00
26707;DHT22;14319;49.422;10.934;2024-01-11T10:32:53;-2.70;76.80
26707;DHT22;14319;49.422;10.934;2024-01-11T10:34:53;-2.90;76.60
26707;DHT22;14319;49.422;10.934;2024-01-11T10:36:54;-2.90;77.00
26707;DHT22;14319;49.422;10.934;2024-01-11T10:38:55;-2.80;77.20
26707;DHT22;14319;49.422;10.934;2024-01-11T10:40:59;-2.80;76.50
26707;DHT22;14319;49.422;10.934;2024-01-11T10:43:01;-2.60;76.40
26707;DHT22;14319;49.422;10.934;2024-01-11T10:45:03;-2.60;75.60
26707;DHT22;14319;49.422;10.934;2024-01-11T10:47:09;-2.50;76.30
26707;DHT22;14319;49.422;10.934;2024-01-11T10:49:11;-2.40;76.20
26707;DHT22;14319;49.422;10.934;2024-01-11T10:51:16;-2.30;73.80
26707;DHT22;14319;49.422;10.934;2024-01-11T10:53:36;-2.00;71.70
26707;DHT22;14319;49.422;10.934;2024-01-11T10:55:41;-1.90;72.40
26707;DHT22;14319;49.422;10.934;2024-01-11T10:57:43;-1.90;71.90
26707;DHT22;14319;49.422;10.934;2024-01-11T10:59:44;-1.80;69.90
26707;DHT22;14319;49.422;10.934;2024-01-11T11:01:47;-1.70;70.10
26707;DHT22;14319;49.422;10.934;2024-01-11T11:03:48;-1.70;70.40
26707;DHT22;14319;49.422;10.934;2024-01-11T11:05:54;-1.70;70.20
26707;DHT22;14319;49.422;10.934;2024-01-11T11:08:01;-1.60;70.60
26707;DHT22;14319;49.422;10.934;2024-01-11T11:10:02;-1.70;70.10
26707;DHT22;14319;49.422;10.934;2024-01-11T11:12:06;-1.60;70.00
26707;DHT22;14319;49.422;10.934;2024-01-11T11:14:07;-1.60;69.40
26707;DHT22;14319;49.422;10.934;2024-01-11T11:16:08;-1.50;69.50
26707;DHT22;14319;49.422;10.934;2024-01-11T11:18:09;-1.60;68.80
26707;DHT22;14319;49.422;10.934;2024-01-11T11:20:10;-1.70;68.90
26707;DHT22;14319;49.422;10.934;2024-01-11T11:22:14;-1.70;69.90
26707;DHT22;14319;49.422;10.934;2024-01-11T11:24:16;-1.60;69.10
26707;DHT22;14319;49.422;10.934;2024-01-11T11:26:17;-1.50;70.30
26707;DHT22;14319;49.422;10.934;2024-01-11T11:28:18;-1.50;70.30
26707;DHT22;14319;49.422;10.934;2024-01-11T11:30:19;-1.40;70.00
26707;DHT22;14319;49.422;10.934;2024-01-11T11:32:35;-1.30;69.40
26707;DHT22;14319;49.422;10.934;2024-01-11T11:34:43;-1.60;69.90
26707;DHT22;14319;49.422;10.934;2024-01-11T11:36:46;-1.60;70.70
26707;DHT22;14319;49.422;10.934;2024-01-11T11:38:47;-1.30;69.60
26707;DHT22;14319;49.422;10.934;2024-01-11T11:40:48;-1.20;68.50
26707;DHT22;14319;49.422;10.934;2024-01-11T11:42:50;-1.00;68.70
26707;DHT22;14319;49.422;10.934;2024-01-11T11:44:51;-0.90;67.80
26707;DHT22;14319;49.422;10.934;2024-01-11T11:46:52;-1.00;68.10
26707;DHT22;14319;49.422;10.934;2024-01-11T11:48:53;-1.10;68.90
26707;DHT22;14319;49.422;10.934;2024-01-11T11:51:11;-1.10;68.70
26707;DHT22;14319;49.422;10.934;2024-01-11T11:53:12;-1.20;68.50
26707;DHT22;14319;49.422;10.934;2024-01-11T11:55:12;-1.30;68.70
26707;DHT22;14319;49.422;10.934;2024-01-11T11:57:16;-1.10;69.60
26707;DHT22;14319;49.422;10.934;2024-01-11T11:59:18;-1.00;69.00
26707;DHT22;14319;49.422;10.934;2024-01-11T12:01:19;-1.10;69.20
26707;DHT22;14319;49.422;10.934;2024-01-11T12:03:19;-1.20;69.40
26707;DHT22;14319;49.422;10.934;2024-01-11T12:05:20;-1.30;70.20
26707;DHT22;14319;49.422;10.934;2024-01-11T12:07:21;-1.40;70.30
26707;DHT22;14319;49.422;10.934;2024-01-11T12:09:23;-1.40;68.80
26707;DHT22;14319;49.422;10.934;2024-01-11T12:11:24;-1.40;69.00
26707;DHT22;14319;49.422;10.934;2024-01-11T12:13:26;-1.30;70.00
26707;DHT22;14319;49.422;10.934;2024-01-11T12:15:29;-1.30;69.50
26707;DHT22;14319;49.422;10.934;2024-01-11T12:17:30;-1.20;68.80
26707;DHT22;14319;49.422;10.934;2024-01-11T12:19:30;-1.20;68.40
26707;DHT22;14319;49.422;10.934;2024-01-11T12:21:31;-0.90;69.20
26707;DHT22;14319;49.422;10.934;2024-01-11T12:23:33;-0.80;68.70
26707;DHT22;14319;49.422;10.934;2024-01-11T12:25:35;-0.70;68.60
26707;DHT22;14319;49.422;10.934;2024-01-11T12:27:36;-0.60;68.30
26707;DHT22;14319;49.422;10.934;2024-01-11T12:29:39;-0.50;68.50
26707;DHT22;14319;49.422;10.934;2024-01-11T12:31:39;-0.40;68.40
26707;DHT22;14319;49.422;10.934;2024-01-11T12:33:40;-0.30;66.80